Ana Sayfa
METAR-TAF:

METAR-TAF

Havaalanları :

Williamsburg-Jamestown Airport

Williamsburg, Virginia, Amerika Birleşik Devletleri

Enlem: 37-14-21N, Boylam: 076-42-57W, yükseklik: 15 m

Güncel hava durumu gözlemi

Rapor saat 17:55 UTC de 11 dakika önce yapıldı.
Rüzgar kuzeydan 6 kt
Sıcaklık 11°C
Nem 28%
Basınç 1023 hPa
Görüş mesafesi: 16.1 km
Açık gökyüzü

METAR: KJGG 071755Z AUTO 35006KT 10SM CLR 11/M07 A3022 RMK AO1

Saat: 13:06 (18:06 UTC)


TAF: eksik

4.000'den fazla havaalanı için hava durumu gözlemleri ve tahminleri (METAR ve TAF raporları).

Kullanılabilir istasyonlar harita üzerinde sarı ve kırmızı noktalarla gösterilir.

İstasyonun adını görmek için fareyi noktanın üzerinde gezdirin.

Sonrasında hava gözlem ve tahminlerini görmek için tıklayın.

Haritayı değiştirmek için: yaklaştırmak için siyah artı işaretli yeşil düğmeye ve uzaklaştırmak için de eksi işaretli düğmeye hızla tıklayın; bitişik haritalar için yeşil okları kullanın.


METAR-TAF: